Bookmark and Share
Track history (hours):
 

CSL Niagara

ex J. W. McGiffin

Last reported at 2014-Apr-18 00:33 UTC. Time now 2014-Apr-23 07:14 UTC.
Position N 45°50' W 084°05'.

Length 225 m; draft 7.1 m.

Type: Cargo ship. MMSI: 316029000.

NotesDate/timePositionNaut miles runAvg speedWind from/ knotsBaromVisibWave heightAir tempDewpointWater temp
2014-Apr-18 00:33N 45°50' W 084°05'1111.3
2014-Apr-17 23:33N 45°51' W 084°22'1010.3
2014-Apr-17 22:33N 45°51' W 084°36'1010.5
2014-Apr-17 21:33N 45°50' W 084°51'1111.5
2014-Apr-17 20:33N 45°51' W 085°08'1111.1
2014-Apr-17 19:33N 45°53' W 085°23'5 4.6
2014-Apr-17 18:33N 45°53' W 085°30'1 1.4
2014-Apr-17 17:33N 45°53' W 085°32'0 0.2
2014-Apr-17 16:33N 45°54' W 085°32'2 1.9
2014-Apr-17 15:33N 45°55' W 085°34'0 0.1
2014-Apr-17 14:33N 45°55' W 085°34'0 0.2
2014-Apr-17 13:33N 45°55' W 085°34'1 0.6
2014-Apr-17 12:33N 45°55' W 085°33'1 0.5
2014-Apr-17 11:33N 45°55' W 085°33'0 0.4
2014-Apr-17 10:33N 45°55' W 085°32'1 0.7
2014-Apr-17 09:33N 45°54' W 085°31'1 0.8
2014-Apr-17 08:33N 45°54' W 085°30'1 0.7
2014-Apr-17 07:33N 45°54' W 085°29'1 0.6
2014-Apr-17 06:33N 45°54' W 085°28'1 0.6
2014-Apr-17 05:33N 45°54' W 085°27'1 0.7
2014-Apr-17 04:33N 45°54' W 085°27'1 0.7
2014-Apr-17 03:33N 45°54' W 085°26'1 0.7
2014-Apr-17 02:33N 45°54' W 085°25'1 0.8
2014-Apr-17 01:33N 45°54' W 085°23'0 0.4
2014-Apr-17 00:33N 45°54' W 085°23'7 7.1
2014-Apr-16 23:33N 45°53' W 085°33'6 5.9
2014-Apr-16 22:33N 45°54' W 085°41'2 2.3
2014-Apr-16 21:33N 45°55' W 085°45'2 1.9
2014-Apr-16 20:33N 45°55' W 085°47'1 0.8
2014-Apr-16 19:33N 45°55' W 085°49'0 0.1
2014-Apr-16 18:33N 45°55' W 085°49'0 0.0
2014-Apr-16 17:33N 45°55' W 085°49'0 0.0
2014-Apr-16 16:33N 45°55' W 085°48'0 0.0
2014-Apr-16 15:33N 45°55' W 085°48'0 0.0
2014-Apr-16 14:33N 45°55' W 085°48'0 0.0
2014-Apr-16 13:33N 45°55' W 085°48'0 0.0
2014-Apr-16 12:33N 45°55' W 085°48'3 2.5
2014-Apr-16 11:33N 45°53' W 085°50'1111.0
2014-Apr-16 10:33N 45°44' W 085°59'1110.9
2014-Apr-16 09:33N 45°35' W 086°08'10 9.8
2014-Apr-16 08:33N 45°25' W 086°13'5 4.8
2014-Apr-16 07:33N 45°21' W 086°13'10 9.5
2014-Apr-16 06:33N 45°12' W 086°18'9 8.7
2014-Apr-16 05:33N 45°03' W 086°21'8 7.7
2014-Apr-16 04:33N 44°56' W 086°18'  

Dump ship's entire track history

sailing weather and tide predictions

CSL Niagara — VCGJ — position and weather